sensor_id;sensor_type;location;lat;lon;timestamp;temperature;humidity
8862;DHT22;4799;50.996;4.754;2023-05-10T00:01:08;13.60;99.90
8862;DHT22;4799;50.996;4.754;2023-05-10T00:03:33;13.70;99.90
8862;DHT22;4799;50.996;4.754;2023-05-10T00:05:59;13.60;99.90
8862;DHT22;4799;50.996;4.754;2023-05-10T00:08:25;13.60;99.90
8862;DHT22;4799;50.996;4.754;2023-05-10T00:10:52;13.60;99.90
8862;DHT22;4799;50.996;4.754;2023-05-10T00:13:18;13.70;99.90
8862;DHT22;4799;50.996;4.754;2023-05-10T00:15:43;13.70;99.90
8862;DHT22;4799;50.996;4.754;2023-05-10T00:18:09;13.70;99.90
8862;DHT22;4799;50.996;4.754;2023-05-10T00:20:35;13.70;99.90
8862;DHT22;4799;50.996;4.754;2023-05-10T00:23:01;13.70;99.90
8862;DHT22;4799;50.996;4.754;2023-05-10T00:25:26;13.70;99.90
8862;DHT22;4799;50.996;4.754;2023-05-10T00:27:52;13.80;99.90
8862;DHT22;4799;50.996;4.754;2023-05-10T00:30:20;13.80;99.90
8862;DHT22;4799;50.996;4.754;2023-05-10T00:32:46;13.80;99.90
8862;DHT22;4799;50.996;4.754;2023-05-10T00:35:13;13.80;99.90
8862;DHT22;4799;50.996;4.754;2023-05-10T00:37:39;13.80;99.90
8862;DHT22;4799;50.996;4.754;2023-05-10T00:40:06;13.80;99.90
8862;DHT22;4799;50.996;4.754;2023-05-10T00:42:31;13.80;99.90
8862;DHT22;4799;50.996;4.754;2023-05-10T00:44:57;13.80;99.90
8862;DHT22;4799;50.996;4.754;2023-05-10T00:47:23;13.80;99.90
8862;DHT22;4799;50.996;4.754;2023-05-10T00:49:49;13.80;99.90
8862;DHT22;4799;50.996;4.754;2023-05-10T00:52:15;13.80;99.90
8862;DHT22;4799;50.996;4.754;2023-05-10T00:54:42;13.80;99.90
8862;DHT22;4799;50.996;4.754;2023-05-10T00:57:07;13.80;99.90
8862;DHT22;4799;50.996;4.754;2023-05-10T00:59:33;13.80;99.90
8862;DHT22;4799;50.996;4.754;2023-05-10T01:01:59;13.80;99.90
8862;DHT22;4799;50.996;4.754;2023-05-10T01:04:25;13.80;99.90
8862;DHT22;4799;50.996;4.754;2023-05-10T01:06:54;13.80;99.90
8862;DHT22;4799;50.996;4.754;2023-05-10T01:09:21;13.70;99.90
8862;DHT22;4799;50.996;4.754;2023-05-10T01:11:47;13.80;99.90
8862;DHT22;4799;50.996;4.754;2023-05-10T01:14:15;13.70;99.90
8862;DHT22;4799;50.996;4.754;2023-05-10T01:16:42;13.70;99.90
8862;DHT22;4799;50.996;4.754;2023-05-10T01:19:19;13.70;99.90
8862;DHT22;4799;50.996;4.754;2023-05-10T01:33:30;13.70;99.90
8862;DHT22;4799;50.996;4.754;2023-05-10T01:36:30;13.70;99.90
8862;DHT22;4799;50.996;4.754;2023-05-10T01:39:11;13.70;99.90
8862;DHT22;4799;50.996;4.754;2023-05-10T01:42:07;13.70;99.90
8862;DHT22;4799;50.996;4.754;2023-05-10T01:47:37;13.70;99.90
8862;DHT22;4799;50.996;4.754;2023-05-10T01:50:08;13.70;99.90
8862;DHT22;4799;50.996;4.754;2023-05-10T01:52:41;13.70;99.90
8862;DHT22;4799;50.996;4.754;2023-05-10T01:55:10;13.70;99.90
8862;DHT22;4799;50.996;4.754;2023-05-10T01:57:37;13.70;99.90
8862;DHT22;4799;50.996;4.754;2023-05-10T02:00:06;13.60;99.90
8862;DHT22;4799;50.996;4.754;2023-05-10T02:02:38;13.70;99.90
8862;DHT22;4799;50.996;4.754;2023-05-10T02:05:08;13.70;99.90
8862;DHT22;4799;50.996;4.754;2023-05-10T02:07:36;13.70;99.90
8862;DHT22;4799;50.996;4.754;2023-05-10T02:10:06;13.70;99.90
8862;DHT22;4799;50.996;4.754;2023-05-10T02:12:41;13.60;99.90
8862;DHT22;4799;50.996;4.754;2023-05-10T02:15:07;13.60;99.90
8862;DHT22;4799;50.996;4.754;2023-05-10T02:17:36;13.70;99.90
8862;DHT22;4799;50.996;4.754;2023-05-10T02:20:03;13.60;99.90
8862;DHT22;4799;50.996;4.754;2023-05-10T02:22:30;13.70;99.90
8862;DHT22;4799;50.996;4.754;2023-05-10T02:24:58;13.60;99.90
8862;DHT22;4799;50.996;4.754;2023-05-10T02:27:27;13.60;99.90
8862;DHT22;4799;50.996;4.754;2023-05-10T02:29:53;13.60;99.90
8862;DHT22;4799;50.996;4.754;2023-05-10T02:32:21;13.60;99.90
8862;DHT22;4799;50.996;4.754;2023-05-10T02:34:49;13.60;99.90
8862;DHT22;4799;50.996;4.754;2023-05-10T02:37:19;13.50;99.90
8862;DHT22;4799;50.996;4.754;2023-05-10T02:39:53;13.50;99.90
8862;DHT22;4799;50.996;4.754;2023-05-10T02:42:24;13.50;99.90
8862;DHT22;4799;50.996;4.754;2023-05-10T02:44:52;13.50;99.90
8862;DHT22;4799;50.996;4.754;2023-05-10T02:47:18;13.50;99.90
8862;DHT22;4799;50.996;4.754;2023-05-10T02:49:45;13.50;99.90
8862;DHT22;4799;50.996;4.754;2023-05-10T02:52:15;13.50;99.90
8862;DHT22;4799;50.996;4.754;2023-05-10T02:54:48;13.50;99.90
8862;DHT22;4799;50.996;4.754;2023-05-10T02:57:17;13.50;99.90
8862;DHT22;4799;50.996;4.754;2023-05-10T02:59:47;13.50;99.90
8862;DHT22;4799;50.996;4.754;2023-05-10T03:02:13;13.50;99.90
8862;DHT22;4799;50.996;4.754;2023-05-10T03:04:39;13.50;99.90
8862;DHT22;4799;50.996;4.754;2023-05-10T03:07:05;13.60;99.90
8862;DHT22;4799;50.996;4.754;2023-05-10T03:09:31;13.50;99.90
8862;DHT22;4799;50.996;4.754;2023-05-10T03:12:05;13.50;99.90
8862;DHT22;4799;50.996;4.754;2023-05-10T03:17:42;13.60;99.90
8862;DHT22;4799;50.996;4.754;2023-05-10T03:20:49;13.50;99.90
8862;DHT22;4799;50.996;4.754;2023-05-10T03:25:33;13.50;99.90
8862;DHT22;4799;50.996;4.754;2023-05-10T03:28:01;13.50;99.90
8862;DHT22;4799;50.996;4.754;2023-05-10T03:30:28;13.50;99.90
8862;DHT22;4799;50.996;4.754;2023-05-10T03:32:54;13.50;99.90
8862;DHT22;4799;50.996;4.754;2023-05-10T03:35:20;13.60;99.90
8862;DHT22;4799;50.996;4.754;2023-05-10T03:37:46;13.60;99.90
8862;DHT22;4799;50.996;4.754;2023-05-10T03:40:13;13.50;99.90
8862;DHT22;4799;50.996;4.754;2023-05-10T03:42:38;13.50;99.90
8862;DHT22;4799;50.996;4.754;2023-05-10T03:45:05;13.50;99.90
8862;DHT22;4799;50.996;4.754;2023-05-10T03:47:31;13.60;99.90
8862;DHT22;4799;50.996;4.754;2023-05-10T03:49:57;13.50;99.90
8862;DHT22;4799;50.996;4.754;2023-05-10T03:52:22;13.50;99.90
8862;DHT22;4799;50.996;4.754;2023-05-10T03:54:48;13.50;99.90
8862;DHT22;4799;50.996;4.754;2023-05-10T03:57:14;13.50;99.90
8862;DHT22;4799;50.996;4.754;2023-05-10T03:59:39;13.50;99.90
8862;DHT22;4799;50.996;4.754;2023-05-10T04:02:05;13.40;99.90
8862;DHT22;4799;50.996;4.754;2023-05-10T04:04:31;13.50;99.90
8862;DHT22;4799;50.996;4.754;2023-05-10T04:06:56;13.50;99.90
8862;DHT22;4799;50.996;4.754;2023-05-10T04:09:22;13.40;99.90
8862;DHT22;4799;50.996;4.754;2023-05-10T04:11:48;13.40;99.90
8862;DHT22;4799;50.996;4.754;2023-05-10T04:14:14;13.40;99.90
8862;DHT22;4799;50.996;4.754;2023-05-10T04:16:40;13.40;99.90
8862;DHT22;4799;50.996;4.754;2023-05-10T04:19:05;13.40;99.90
8862;DHT22;4799;50.996;4.754;2023-05-10T04:21:31;13.40;99.90
8862;DHT22;4799;50.996;4.754;2023-05-10T04:23:57;13.40;99.90
8862;DHT22;4799;50.996;4.754;2023-05-10T04:26:23;13.40;99.90
8862;DHT22;4799;50.996;4.754;2023-05-10T04:28:50;13.40;99.90
8862;DHT22;4799;50.996;4.754;2023-05-10T04:31:16;13.40;99.90
8862;DHT22;4799;50.996;4.754;2023-05-10T04:33:42;13.30;99.90
8862;DHT22;4799;50.996;4.754;2023-05-10T04:36:08;13.30;99.90
8862;DHT22;4799;50.996;4.754;2023-05-10T04:38:34;13.30;99.90
8862;DHT22;4799;50.996;4.754;2023-05-10T04:41:10;13.30;99.90
8862;DHT22;4799;50.996;4.754;2023-05-10T04:43:37;13.30;99.90
8862;DHT22;4799;50.996;4.754;2023-05-10T04:46:03;13.20;99.90
8862;DHT22;4799;50.996;4.754;2023-05-10T04:48:29;13.20;99.90
8862;DHT22;4799;50.996;4.754;2023-05-10T04:50:55;13.20;99.90
8862;DHT22;4799;50.996;4.754;2023-05-10T04:53:21;13.20;99.90
8862;DHT22;4799;50.996;4.754;2023-05-10T04:55:48;13.10;99.90
8862;DHT22;4799;50.996;4.754;2023-05-10T04:58:14;13.10;99.90
8862;DHT22;4799;50.996;4.754;2023-05-10T05:00:40;13.10;99.90
8862;DHT22;4799;50.996;4.754;2023-05-10T05:03:06;13.10;99.90
8862;DHT22;4799;50.996;4.754;2023-05-10T05:05:31;13.10;99.90
8862;DHT22;4799;50.996;4.754;2023-05-10T05:07:57;13.10;99.90
8862;DHT22;4799;50.996;4.754;2023-05-10T05:10:23;13.10;99.90
8862;DHT22;4799;50.996;4.754;2023-05-10T05:12:48;13.10;99.90
8862;DHT22;4799;50.996;4.754;2023-05-10T05:15:14;13.10;99.90
8862;DHT22;4799;50.996;4.754;2023-05-10T05:17:45;13.10;99.90
8862;DHT22;4799;50.996;4.754;2023-05-10T05:20:11;13.20;99.90
8862;DHT22;4799;50.996;4.754;2023-05-10T05:22:37;13.10;99.90
8862;DHT22;4799;50.996;4.754;2023-05-10T05:25:03;13.20;99.90
8862;DHT22;4799;50.996;4.754;2023-05-10T05:27:29;13.20;99.90
8862;DHT22;4799;50.996;4.754;2023-05-10T05:29:56;13.30;99.90
8862;DHT22;4799;50.996;4.754;2023-05-10T05:32:22;13.30;99.90
8862;DHT22;4799;50.996;4.754;2023-05-10T05:34:48;13.40;99.90
8862;DHT22;4799;50.996;4.754;2023-05-10T05:37:18;13.40;99.90
8862;DHT22;4799;50.996;4.754;2023-05-10T05:39:45;13.50;99.90
8862;DHT22;4799;50.996;4.754;2023-05-10T05:42:12;13.60;99.90
8862;DHT22;4799;50.996;4.754;2023-05-10T05:44:38;13.60;99.90
8862;DHT22;4799;50.996;4.754;2023-05-10T05:47:04;13.70;99.90
8862;DHT22;4799;50.996;4.754;2023-05-10T05:49:30;13.70;99.90
8862;DHT22;4799;50.996;4.754;2023-05-10T05:52:00;13.80;99.90
8862;DHT22;4799;50.996;4.754;2023-05-10T05:54:26;13.80;99.90
8862;DHT22;4799;50.996;4.754;2023-05-10T05:56:56;13.90;99.90
8862;DHT22;4799;50.996;4.754;2023-05-10T05:59:22;14.00;99.90
8862;DHT22;4799;50.996;4.754;2023-05-10T06:01:48;14.00;99.90
8862;DHT22;4799;50.996;4.754;2023-05-10T06:04:14;14.20;99.90
8862;DHT22;4799;50.996;4.754;2023-05-10T06:06:39;14.20;99.90
8862;DHT22;4799;50.996;4.754;2023-05-10T06:09:05;14.30;99.90
8862;DHT22;4799;50.996;4.754;2023-05-10T06:11:31;14.40;99.90
8862;DHT22;4799;50.996;4.754;2023-05-10T06:14:00;14.50;99.90
8862;DHT22;4799;50.996;4.754;2023-05-10T06:16:27;14.60;99.90
8862;DHT22;4799;50.996;4.754;2023-05-10T06:18:52;14.60;99.90
8862;DHT22;4799;50.996;4.754;2023-05-10T06:21:18;14.70;99.90
8862;DHT22;4799;50.996;4.754;2023-05-10T06:23:44;14.80;99.90
8862;DHT22;4799;50.996;4.754;2023-05-10T06:26:10;14.80;99.90
8862;DHT22;4799;50.996;4.754;2023-05-10T06:28:36;14.90;99.90
8862;DHT22;4799;50.996;4.754;2023-05-10T06:31:04;14.90;99.90
8862;DHT22;4799;50.996;4.754;2023-05-10T06:33:30;14.90;99.90
8862;DHT22;4799;50.996;4.754;2023-05-10T06:35:56;15.00;99.90
8862;DHT22;4799;50.996;4.754;2023-05-10T06:38:22;15.00;99.90
8862;DHT22;4799;50.996;4.754;2023-05-10T06:40:48;15.00;99.90
8862;DHT22;4799;50.996;4.754;2023-05-10T06:43:14;14.90;99.90
8862;DHT22;4799;50.996;4.754;2023-05-10T06:45:40;14.90;99.90
8862;DHT22;4799;50.996;4.754;2023-05-10T06:48:06;14.90;99.90
8862;DHT22;4799;50.996;4.754;2023-05-10T06:50:32;14.90;99.90
8862;DHT22;4799;50.996;4.754;2023-05-10T06:52:59;14.90;99.90
8862;DHT22;4799;50.996;4.754;2023-05-10T06:55:25;14.90;99.90
8862;DHT22;4799;50.996;4.754;2023-05-10T06:57:51;14.90;99.90
8862;DHT22;4799;50.996;4.754;2023-05-10T07:00:17;14.90;99.90
8862;DHT22;4799;50.996;4.754;2023-05-10T07:02:43;14.90;99.90
8862;DHT22;4799;50.996;4.754;2023-05-10T07:05:09;14.90;99.90
8862;DHT22;4799;50.996;4.754;2023-05-10T07:07:35;14.90;99.90
8862;DHT22;4799;50.996;4.754;2023-05-10T07:10:01;14.90;99.90
8862;DHT22;4799;50.996;4.754;2023-05-10T07:12:27;15.00;99.90
8862;DHT22;4799;50.996;4.754;2023-05-10T07:14:52;15.00;99.90
8862;DHT22;4799;50.996;4.754;2023-05-10T07:17:18;15.00;99.90
8862;DHT22;4799;50.996;4.754;2023-05-10T07:19:44;15.10;99.90
8862;DHT22;4799;50.996;4.754;2023-05-10T07:22:10;15.10;99.90
8862;DHT22;4799;50.996;4.754;2023-05-10T07:24:36;15.10;99.90
8862;DHT22;4799;50.996;4.754;2023-05-10T07:27:01;15.20;99.90
8862;DHT22;4799;50.996;4.754;2023-05-10T07:29:27;15.20;99.90
8862;DHT22;4799;50.996;4.754;2023-05-10T07:31:54;15.30;99.90
8862;DHT22;4799;50.996;4.754;2023-05-10T07:34:19;15.40;99.90
8862;DHT22;4799;50.996;4.754;2023-05-10T07:36:45;15.60;99.90
8862;DHT22;4799;50.996;4.754;2023-05-10T07:39:11;15.70;99.90
8862;DHT22;4799;50.996;4.754;2023-05-10T07:41:37;15.80;99.90
8862;DHT22;4799;50.996;4.754;2023-05-10T07:44:04;15.90;99.90
8862;DHT22;4799;50.996;4.754;2023-05-10T07:46:30;16.00;99.90
8862;DHT22;4799;50.996;4.754;2023-05-10T07:48:56;16.10;99.90
8862;DHT22;4799;50.996;4.754;2023-05-10T07:51:22;16.10;99.90
8862;DHT22;4799;50.996;4.754;2023-05-10T07:53:47;16.10;99.90
8862;DHT22;4799;50.996;4.754;2023-05-10T07:56:22;16.10;99.90
8862;DHT22;4799;50.996;4.754;2023-05-10T07:58:48;16.00;99.90
8862;DHT22;4799;50.996;4.754;2023-05-10T08:01:14;16.00;99.90
8862;DHT22;4799;50.996;4.754;2023-05-10T08:03:40;15.90;99.90
8862;DHT22;4799;50.996;4.754;2023-05-10T08:06:06;15.90;99.90
8862;DHT22;4799;50.996;4.754;2023-05-10T08:08:31;16.00;99.90
8862;DHT22;4799;50.996;4.754;2023-05-10T08:10:57;16.00;99.90
8862;DHT22;4799;50.996;4.754;2023-05-10T08:13:23;16.00;99.90
8862;DHT22;4799;50.996;4.754;2023-05-10T08:15:49;16.10;99.90
8862;DHT22;4799;50.996;4.754;2023-05-10T08:18:14;16.20;99.90
8862;DHT22;4799;50.996;4.754;2023-05-10T08:20:40;16.20;99.90
8862;DHT22;4799;50.996;4.754;2023-05-10T08:23:06;16.20;99.90
8862;DHT22;4799;50.996;4.754;2023-05-10T08:25:32;16.10;99.90
8862;DHT22;4799;50.996;4.754;2023-05-10T08:27:57;16.10;99.90
8862;DHT22;4799;50.996;4.754;2023-05-10T08:30:23;16.10;99.90
8862;DHT22;4799;50.996;4.754;2023-05-10T08:32:49;16.10;99.90
8862;DHT22;4799;50.996;4.754;2023-05-10T08:35:15;16.20;99.90
8862;DHT22;4799;50.996;4.754;2023-05-10T08:37:41;16.30;99.90
8862;DHT22;4799;50.996;4.754;2023-05-10T08:40:08;16.30;99.90
8862;DHT22;4799;50.996;4.754;2023-05-10T08:42:40;16.50;99.90
8862;DHT22;4799;50.996;4.754;2023-05-10T08:45:08;16.40;99.90
8862;DHT22;4799;50.996;4.754;2023-05-10T08:47:36;16.40;99.90
8862;DHT22;4799;50.996;4.754;2023-05-10T08:50:03;16.30;99.90
8862;DHT22;4799;50.996;4.754;2023-05-10T08:52:30;16.30;99.90
8862;DHT22;4799;50.996;4.754;2023-05-10T08:54:58;16.20;99.90
8862;DHT22;4799;50.996;4.754;2023-05-10T08:57:24;16.40;99.90
8862;DHT22;4799;50.996;4.754;2023-05-10T08:59:50;16.60;99.90
8862;DHT22;4799;50.996;4.754;2023-05-10T09:02:17;16.80;99.90
8862;DHT22;4799;50.996;4.754;2023-05-10T09:04:43;17.00;99.90
8862;DHT22;4799;50.996;4.754;2023-05-10T09:07:10;17.10;99.90
8862;DHT22;4799;50.996;4.754;2023-05-10T09:09:36;17.30;99.90
8862;DHT22;4799;50.996;4.754;2023-05-10T09:12:02;17.40;99.90
8862;DHT22;4799;50.996;4.754;2023-05-10T09:14:29;17.50;99.90
8862;DHT22;4799;50.996;4.754;2023-05-10T09:16:56;17.60;99.90
8862;DHT22;4799;50.996;4.754;2023-05-10T09:19:22;17.80;99.90
8862;DHT22;4799;50.996;4.754;2023-05-10T09:21:48;17.90;99.90
8862;DHT22;4799;50.996;4.754;2023-05-10T09:24:15;18.10;99.90
8862;DHT22;4799;50.996;4.754;2023-05-10T09:26:48;18.20;99.90
8862;DHT22;4799;50.996;4.754;2023-05-10T09:29:14;18.20;99.90
8862;DHT22;4799;50.996;4.754;2023-05-10T09:31:47;18.30;99.90
8862;DHT22;4799;50.996;4.754;2023-05-10T09:34:20;18.20;99.90
8862;DHT22;4799;50.996;4.754;2023-05-10T09:36:53;18.10;99.90
8862;DHT22;4799;50.996;4.754;2023-05-10T09:39:19;18.00;99.90
8862;DHT22;4799;50.996;4.754;2023-05-10T09:41:45;17.90;99.90
8862;DHT22;4799;50.996;4.754;2023-05-10T09:44:16;17.70;99.90
8862;DHT22;4799;50.996;4.754;2023-05-10T09:46:49;17.60;99.90
8862;DHT22;4799;50.996;4.754;2023-05-10T09:49:14;17.50;99.90
8862;DHT22;4799;50.996;4.754;2023-05-10T09:51:40;17.40;99.90
8862;DHT22;4799;50.996;4.754;2023-05-10T09:54:11;17.40;99.90
8862;DHT22;4799;50.996;4.754;2023-05-10T09:56:37;17.50;99.90
8862;DHT22;4799;50.996;4.754;2023-05-10T09:59:06;17.60;99.90
8862;DHT22;4799;50.996;4.754;2023-05-10T10:01:32;17.70;99.90
8862;DHT22;4799;50.996;4.754;2023-05-10T10:03:58;17.80;99.90
8862;DHT22;4799;50.996;4.754;2023-05-10T10:06:24;17.70;99.90
8862;DHT22;4799;50.996;4.754;2023-05-10T10:08:51;17.70;99.90
8862;DHT22;4799;50.996;4.754;2023-05-10T10:11:17;17.70;99.90
8862;DHT22;4799;50.996;4.754;2023-05-10T10:13:43;17.70;99.90
8862;DHT22;4799;50.996;4.754;2023-05-10T10:16:09;17.70;99.90
8862;DHT22;4799;50.996;4.754;2023-05-10T10:18:36;17.60;99.90
8862;DHT22;4799;50.996;4.754;2023-05-10T10:21:08;17.50;99.90
8862;DHT22;4799;50.996;4.754;2023-05-10T10:23:37;17.40;99.90
8862;DHT22;4799;50.996;4.754;2023-05-10T10:26:04;17.40;99.90
8862;DHT22;4799;50.996;4.754;2023-05-10T10:31:34;17.60;99.90
8862;DHT22;4799;50.996;4.754;2023-05-10T10:34:26;17.90;99.90
8862;DHT22;4799;50.996;4.754;2023-05-10T10:36:54;18.30;99.90
8862;DHT22;4799;50.996;4.754;2023-05-10T10:39:20;18.70;99.90
8862;DHT22;4799;50.996;4.754;2023-05-10T10:41:51;19.00;99.90
8862;DHT22;4799;50.996;4.754;2023-05-10T10:49:49;19.80;99.90
8862;DHT22;4799;50.996;4.754;2023-05-10T10:55:15;19.80;99.90
8862;DHT22;4799;50.996;4.754;2023-05-10T11:02:59;19.90;99.90
8862;DHT22;4799;50.996;4.754;2023-05-10T11:05:38;20.20;99.90
8862;DHT22;4799;50.996;4.754;2023-05-10T11:10:36;20.70;99.90
8862;DHT22;4799;50.996;4.754;2023-05-10T11:13:03;20.90;99.90
8862;DHT22;4799;50.996;4.754;2023-05-10T11:15:48;21.00;99.90
8862;DHT22;4799;50.996;4.754;2023-05-10T11:18:19;21.00;99.90
8862;DHT22;4799;50.996;4.754;2023-05-10T11:20:50;21.10;99.90
8862;DHT22;4799;50.996;4.754;2023-05-10T11:23:17;21.00;99.90
8862;DHT22;4799;50.996;4.754;2023-05-10T11:25:47;21.00;99.90
8862;DHT22;4799;50.996;4.754;2023-05-10T11:28:13;20.90;99.90
8862;DHT22;4799;50.996;4.754;2023-05-10T11:30:40;20.80;99.90
8862;DHT22;4799;50.996;4.754;2023-05-10T11:33:07;20.80;99.90
8862;DHT22;4799;50.996;4.754;2023-05-10T11:35:40;20.80;99.90
8862;DHT22;4799;50.996;4.754;2023-05-10T11:38:13;20.80;99.90
8862;DHT22;4799;50.996;4.754;2023-05-10T11:40:40;20.90;99.90
8862;DHT22;4799;50.996;4.754;2023-05-10T11:43:06;21.00;99.90
8862;DHT22;4799;50.996;4.754;2023-05-10T11:45:34;21.10;99.90
8862;DHT22;4799;50.996;4.754;2023-05-10T11:48:01;21.20;99.90
8862;DHT22;4799;50.996;4.754;2023-05-10T11:50:27;21.30;99.90
8862;DHT22;4799;50.996;4.754;2023-05-10T11:52:54;21.30;99.90
8862;DHT22;4799;50.996;4.754;2023-05-10T11:55:21;21.30;99.90
8862;DHT22;4799;50.996;4.754;2023-05-10T11:57:47;21.20;99.90
8862;DHT22;4799;50.996;4.754;2023-05-10T12:00:13;21.20;99.90
8862;DHT22;4799;50.996;4.754;2023-05-10T12:02:39;21.10;99.90
8862;DHT22;4799;50.996;4.754;2023-05-10T12:05:06;21.10;99.90
8862;DHT22;4799;50.996;4.754;2023-05-10T12:07:32;21.10;99.90
8862;DHT22;4799;50.996;4.754;2023-05-10T12:10:09;21.10;99.90
8862;DHT22;4799;50.996;4.754;2023-05-10T12:12:37;21.10;99.90
8862;DHT22;4799;50.996;4.754;2023-05-10T12:15:04;21.20;99.90
8862;DHT22;4799;50.996;4.754;2023-05-10T12:17:30;21.30;99.90
8862;DHT22;4799;50.996;4.754;2023-05-10T12:25:12;21.70;99.90
8862;DHT22;4799;50.996;4.754;2023-05-10T12:27:37;21.90;99.90
8862;DHT22;4799;50.996;4.754;2023-05-10T12:30:03;22.10;99.90
8862;DHT22;4799;50.996;4.754;2023-05-10T12:32:40;22.20;99.90
8862;DHT22;4799;50.996;4.754;2023-05-10T12:35:07;22.30;99.90
8862;DHT22;4799;50.996;4.754;2023-05-10T12:37:32;22.40;99.90
8862;DHT22;4799;50.996;4.754;2023-05-10T12:40:01;22.60;99.50
8862;DHT22;4799;50.996;4.754;2023-05-10T12:42:28;22.80;98.80
8862;DHT22;4799;50.996;4.754;2023-05-10T12:44:56;22.90;97.30
8862;DHT22;4799;50.996;4.754;2023-05-10T12:47:22;22.90;96.80
8862;DHT22;4799;50.996;4.754;2023-05-10T12:49:47;23.00;97.50
8862;DHT22;4799;50.996;4.754;2023-05-10T12:52:13;23.00;96.30
8862;DHT22;4799;50.996;4.754;2023-05-10T12:54:39;23.10;96.50
8862;DHT22;4799;50.996;4.754;2023-05-10T12:57:04;23.10;96.00
8862;DHT22;4799;50.996;4.754;2023-05-10T12:59:30;23.20;95.00
8862;DHT22;4799;50.996;4.754;2023-05-10T13:01:57;23.10;95.00
8862;DHT22;4799;50.996;4.754;2023-05-10T13:04:23;23.10;94.60
8862;DHT22;4799;50.996;4.754;2023-05-10T13:06:49;23.00;95.00
8862;DHT22;4799;50.996;4.754;2023-05-10T13:09:14;23.00;95.60
8862;DHT22;4799;50.996;4.754;2023-05-10T13:11:41;23.00;95.60
8862;DHT22;4799;50.996;4.754;2023-05-10T13:14:06;23.10;95.40
8862;DHT22;4799;50.996;4.754;2023-05-10T13:16:32;23.10;95.70
8862;DHT22;4799;50.996;4.754;2023-05-10T13:18:58;23.10;95.00
8862;DHT22;4799;50.996;4.754;2023-05-10T13:21:24;23.20;95.20
8862;DHT22;4799;50.996;4.754;2023-05-10T13:23:50;23.30;94.70
8862;DHT22;4799;50.996;4.754;2023-05-10T13:26:16;23.30;94.50
8862;DHT22;4799;50.996;4.754;2023-05-10T13:28:43;23.30;94.90
8862;DHT22;4799;50.996;4.754;2023-05-10T13:31:09;23.30;94.80
8862;DHT22;4799;50.996;4.754;2023-05-10T13:33:35;23.40;95.10
8862;DHT22;4799;50.996;4.754;2023-05-10T13:36:00;23.40;94.90
8862;DHT22;4799;50.996;4.754;2023-05-10T13:38:26;23.40;94.70
8862;DHT22;4799;50.996;4.754;2023-05-10T13:40:52;23.20;94.20
8862;DHT22;4799;50.996;4.754;2023-05-10T13:43:18;23.20;94.90
8862;DHT22;4799;50.996;4.754;2023-05-10T13:45:44;23.10;94.60
8862;DHT22;4799;50.996;4.754;2023-05-10T13:48:10;23.00;94.90
8862;DHT22;4799;50.996;4.754;2023-05-10T13:50:36;22.90;95.40
8862;DHT22;4799;50.996;4.754;2023-05-10T13:53:01;22.70;95.70
8862;DHT22;4799;50.996;4.754;2023-05-10T13:55:27;22.60;96.00
8862;DHT22;4799;50.996;4.754;2023-05-10T13:57:54;22.50;96.50
8862;DHT22;4799;50.996;4.754;2023-05-10T14:00:19;22.40;96.90
8862;DHT22;4799;50.996;4.754;2023-05-10T14:02:45;22.20;96.90
8862;DHT22;4799;50.996;4.754;2023-05-10T14:05:11;22.00;97.10
8862;DHT22;4799;50.996;4.754;2023-05-10T14:07:36;21.90;97.40
8862;DHT22;4799;50.996;4.754;2023-05-10T14:10:02;21.80;98.00
8862;DHT22;4799;50.996;4.754;2023-05-10T14:12:28;21.70;98.90
8862;DHT22;4799;50.996;4.754;2023-05-10T14:14:54;21.60;99.70
8862;DHT22;4799;50.996;4.754;2023-05-10T14:17:20;21.50;99.90
8862;DHT22;4799;50.996;4.754;2023-05-10T14:19:46;21.60;99.90
8862;DHT22;4799;50.996;4.754;2023-05-10T14:22:11;21.60;99.90
8862;DHT22;4799;50.996;4.754;2023-05-10T14:24:38;21.80;99.90
8862;DHT22;4799;50.996;4.754;2023-05-10T14:27:03;21.90;99.90
8862;DHT22;4799;50.996;4.754;2023-05-10T14:29:29;21.90;99.90
8862;DHT22;4799;50.996;4.754;2023-05-10T14:31:55;21.90;99.30
8862;DHT22;4799;50.996;4.754;2023-05-10T14:34:21;21.90;97.60
8862;DHT22;4799;50.996;4.754;2023-05-10T14:36:46;21.90;96.70
8862;DHT22;4799;50.996;4.754;2023-05-10T14:39:12;21.90;96.70
8862;DHT22;4799;50.996;4.754;2023-05-10T14:41:39;21.80;96.90
8862;DHT22;4799;50.996;4.754;2023-05-10T14:44:06;21.80;96.80
8862;DHT22;4799;50.996;4.754;2023-05-10T14:46:32;21.80;95.50
8862;DHT22;4799;50.996;4.754;2023-05-10T14:48:59;21.80;96.10
8862;DHT22;4799;50.996;4.754;2023-05-10T14:51:25;21.90;97.10
8862;DHT22;4799;50.996;4.754;2023-05-10T14:53:51;22.10;95.60
8862;DHT22;4799;50.996;4.754;2023-05-10T14:56:16;22.10;94.30
8862;DHT22;4799;50.996;4.754;2023-05-10T14:58:42;22.00;94.30
8862;DHT22;4799;50.996;4.754;2023-05-10T15:01:08;22.00;93.80
8862;DHT22;4799;50.996;4.754;2023-05-10T15:03:34;21.80;92.40
8862;DHT22;4799;50.996;4.754;2023-05-10T15:05:59;21.80;93.80
8862;DHT22;4799;50.996;4.754;2023-05-10T15:08:25;21.70;93.90
8862;DHT22;4799;50.996;4.754;2023-05-10T15:10:51;21.60;93.90
8862;DHT22;4799;50.996;4.754;2023-05-10T15:13:17;21.50;94.00
8862;DHT22;4799;50.996;4.754;2023-05-10T15:15:43;21.30;94.00
8862;DHT22;4799;50.996;4.754;2023-05-10T15:18:09;21.20;94.30
8862;DHT22;4799;50.996;4.754;2023-05-10T15:20:35;21.10;95.00
8862;DHT22;4799;50.996;4.754;2023-05-10T15:23:01;21.00;95.40
8862;DHT22;4799;50.996;4.754;2023-05-10T15:25:27;20.70;95.80
8862;DHT22;4799;50.996;4.754;2023-05-10T15:27:54;20.40;96.40
8862;DHT22;4799;50.996;4.754;2023-05-10T15:30:20;20.20;96.90
8862;DHT22;4799;50.996;4.754;2023-05-10T15:32:46;20.10;97.40
8862;DHT22;4799;50.996;4.754;2023-05-10T15:35:11;20.00;97.90
8862;DHT22;4799;50.996;4.754;2023-05-10T15:37:37;19.90;98.20
8862;DHT22;4799;50.996;4.754;2023-05-10T15:40:04;19.90;98.30
8862;DHT22;4799;50.996;4.754;2023-05-10T15:42:30;19.90;98.70
8862;DHT22;4799;50.996;4.754;2023-05-10T15:44:56;19.80;98.90
8862;DHT22;4799;50.996;4.754;2023-05-10T15:47:22;19.80;99.20
8862;DHT22;4799;50.996;4.754;2023-05-10T15:49:47;19.70;99.50
8862;DHT22;4799;50.996;4.754;2023-05-10T15:52:13;19.60;99.90
8862;DHT22;4799;50.996;4.754;2023-05-10T15:54:39;19.50;99.90
8862;DHT22;4799;50.996;4.754;2023-05-10T15:57:05;19.30;99.90
8862;DHT22;4799;50.996;4.754;2023-05-10T15:59:31;19.10;99.90
8862;DHT22;4799;50.996;4.754;2023-05-10T16:01:57;18.90;99.90
8862;DHT22;4799;50.996;4.754;2023-05-10T16:04:23;18.70;99.90
8862;DHT22;4799;50.996;4.754;2023-05-10T16:06:49;18.60;99.90
8862;DHT22;4799;50.996;4.754;2023-05-10T16:09:15;18.60;99.90
8862;DHT22;4799;50.996;4.754;2023-05-10T16:11:42;18.60;99.90
8862;DHT22;4799;50.996;4.754;2023-05-10T16:14:08;18.60;99.90
8862;DHT22;4799;50.996;4.754;2023-05-10T16:16:34;18.60;99.90
8862;DHT22;4799;50.996;4.754;2023-05-10T16:19:00;18.50;99.90
8862;DHT22;4799;50.996;4.754;2023-05-10T16:21:29;18.50;99.90
8862;DHT22;4799;50.996;4.754;2023-05-10T16:23:57;18.60;99.90
8862;DHT22;4799;50.996;4.754;2023-05-10T16:26:23;18.60;99.90
8862;DHT22;4799;50.996;4.754;2023-05-10T16:28:49;18.60;99.90
8862;DHT22;4799;50.996;4.754;2023-05-10T16:31:15;18.50;99.90
8862;DHT22;4799;50.996;4.754;2023-05-10T16:33:42;18.40;99.90
8862;DHT22;4799;50.996;4.754;2023-05-10T16:36:08;18.30;99.90
8862;DHT22;4799;50.996;4.754;2023-05-10T16:38:34;18.30;99.90
8862;DHT22;4799;50.996;4.754;2023-05-10T16:41:03;18.30;99.90
8862;DHT22;4799;50.996;4.754;2023-05-10T16:43:29;18.30;99.90
8862;DHT22;4799;50.996;4.754;2023-05-10T16:45:55;18.20;99.90